sensor_id;sensor_type;location;lat;lon;timestamp;temperature;humidity
3528;DHT22;1778;47.966;7.854;2023-07-29T00:00:34;17.70;99.90
3528;DHT22;1778;47.966;7.854;2023-07-29T00:01:35;17.70;99.90
3528;DHT22;1778;47.966;7.854;2023-07-29T00:02:37;17.70;99.90
3528;DHT22;1778;47.966;7.854;2023-07-29T00:03:38;17.70;99.90
3528;DHT22;1778;47.966;7.854;2023-07-29T00:04:40;17.70;99.90
3528;DHT22;1778;47.966;7.854;2023-07-29T00:05:42;17.70;99.90
3528;DHT22;1778;47.966;7.854;2023-07-29T00:06:43;17.70;99.90
3528;DHT22;1778;47.966;7.854;2023-07-29T00:07:44;17.70;99.90
3528;DHT22;1778;47.966;7.854;2023-07-29T00:08:46;17.70;99.90
3528;DHT22;1778;47.966;7.854;2023-07-29T00:09:47;17.70;99.90
3528;DHT22;1778;47.966;7.854;2023-07-29T00:10:49;17.70;99.90
3528;DHT22;1778;47.966;7.854;2023-07-29T00:11:50;17.80;99.90
3528;DHT22;1778;47.966;7.854;2023-07-29T00:12:52;17.80;99.90
3528;DHT22;1778;47.966;7.854;2023-07-29T00:13:54;17.80;99.90
3528;DHT22;1778;47.966;7.854;2023-07-29T00:14:55;17.80;99.90
3528;DHT22;1778;47.966;7.854;2023-07-29T00:15:57;17.80;99.90
3528;DHT22;1778;47.966;7.854;2023-07-29T00:16:58;17.80;99.90
3528;DHT22;1778;47.966;7.854;2023-07-29T00:18:00;17.80;99.90
3528;DHT22;1778;47.966;7.854;2023-07-29T00:19:03;17.80;99.90
3528;DHT22;1778;47.966;7.854;2023-07-29T00:20:06;17.80;99.90
3528;DHT22;1778;47.966;7.854;2023-07-29T00:21:09;17.90;99.90
3528;DHT22;1778;47.966;7.854;2023-07-29T00:22:11;17.90;99.90
3528;DHT22;1778;47.966;7.854;2023-07-29T00:23:13;17.90;99.90
3528;DHT22;1778;47.966;7.854;2023-07-29T00:24:14;17.80;99.90
3528;DHT22;1778;47.966;7.854;2023-07-29T00:25:16;17.90;99.90
3528;DHT22;1778;47.966;7.854;2023-07-29T00:26:18;17.90;99.90
3528;DHT22;1778;47.966;7.854;2023-07-29T00:27:19;17.80;99.90
3528;DHT22;1778;47.966;7.854;2023-07-29T00:28:22;17.90;99.90
3528;DHT22;1778;47.966;7.854;2023-07-29T00:29:24;17.80;99.90
3528;DHT22;1778;47.966;7.854;2023-07-29T00:30:26;17.80;99.90
3528;DHT22;1778;47.966;7.854;2023-07-29T00:31:27;17.80;99.90
3528;DHT22;1778;47.966;7.854;2023-07-29T00:32:31;17.90;99.90
3528;DHT22;1778;47.966;7.854;2023-07-29T00:33:33;17.80;99.90
3528;DHT22;1778;47.966;7.854;2023-07-29T00:34:34;17.80;99.90
3528;DHT22;1778;47.966;7.854;2023-07-29T00:35:37;17.80;99.90
3528;DHT22;1778;47.966;7.854;2023-07-29T00:36:39;17.90;99.90
3528;DHT22;1778;47.966;7.854;2023-07-29T00:37:40;17.80;99.90
3528;DHT22;1778;47.966;7.854;2023-07-29T00:38:42;17.80;99.90
3528;DHT22;1778;47.966;7.854;2023-07-29T00:39:44;17.80;99.90
3528;DHT22;1778;47.966;7.854;2023-07-29T00:40:45;17.80;99.90
3528;DHT22;1778;47.966;7.854;2023-07-29T00:41:49;17.80;99.90
3528;DHT22;1778;47.966;7.854;2023-07-29T00:42:51;17.90;99.90
3528;DHT22;1778;47.966;7.854;2023-07-29T00:43:52;17.80;99.90
3528;DHT22;1778;47.966;7.854;2023-07-29T00:44:54;17.80;99.90
3528;DHT22;1778;47.966;7.854;2023-07-29T00:45:56;17.90;99.90
3528;DHT22;1778;47.966;7.854;2023-07-29T00:46:59;17.80;99.90
3528;DHT22;1778;47.966;7.854;2023-07-29T00:48:03;17.90;99.90
3528;DHT22;1778;47.966;7.854;2023-07-29T00:49:07;17.90;99.90
3528;DHT22;1778;47.966;7.854;2023-07-29T00:50:11;17.90;99.90
3528;DHT22;1778;47.966;7.854;2023-07-29T00:51:12;17.90;99.90
3528;DHT22;1778;47.966;7.854;2023-07-29T00:52:14;17.90;99.90
3528;DHT22;1778;47.966;7.854;2023-07-29T00:53:16;17.90;99.90
3528;DHT22;1778;47.966;7.854;2023-07-29T00:54:18;17.90;99.90
3528;DHT22;1778;47.966;7.854;2023-07-29T00:55:19;17.90;99.90
3528;DHT22;1778;47.966;7.854;2023-07-29T00:56:21;17.90;99.90
3528;DHT22;1778;47.966;7.854;2023-07-29T00:57:23;17.90;99.90
3528;DHT22;1778;47.966;7.854;2023-07-29T00:58:26;17.90;99.90
3528;DHT22;1778;47.966;7.854;2023-07-29T00:59:28;17.90;99.90
3528;DHT22;1778;47.966;7.854;2023-07-29T01:00:32;17.90;99.90
3528;DHT22;1778;47.966;7.854;2023-07-29T01:01:34;17.90;99.90
3528;DHT22;1778;47.966;7.854;2023-07-29T01:02:37;18.00;99.90
3528;DHT22;1778;47.966;7.854;2023-07-29T01:03:39;18.00;99.90
3528;DHT22;1778;47.966;7.854;2023-07-29T01:04:41;18.00;99.90
3528;DHT22;1778;47.966;7.854;2023-07-29T01:06:09;18.00;99.90
3528;DHT22;1778;47.966;7.854;2023-07-29T01:07:24;18.00;99.90
3528;DHT22;1778;47.966;7.854;2023-07-29T01:09:59;17.90;99.90
3528;DHT22;1778;47.966;7.854;2023-07-29T01:12:27;17.90;99.90
3528;DHT22;1778;47.966;7.854;2023-07-29T01:13:50;18.00;99.90
3528;DHT22;1778;47.966;7.854;2023-07-29T01:15:15;18.00;99.90
3528;DHT22;1778;47.966;7.854;2023-07-29T01:16:31;18.00;99.90
3528;DHT22;1778;47.966;7.854;2023-07-29T01:18:02;18.00;99.90
3528;DHT22;1778;47.966;7.854;2023-07-29T01:19:04;17.90;99.90
3528;DHT22;1778;47.966;7.854;2023-07-29T01:20:16;17.90;99.90
3528;DHT22;1778;47.966;7.854;2023-07-29T01:21:19;17.90;99.90
3528;DHT22;1778;47.966;7.854;2023-07-29T01:22:21;17.90;99.90
3528;DHT22;1778;47.966;7.854;2023-07-29T01:23:25;17.90;99.90
3528;DHT22;1778;47.966;7.854;2023-07-29T01:24:27;17.90;99.90
3528;DHT22;1778;47.966;7.854;2023-07-29T01:25:28;17.90;99.90
3528;DHT22;1778;47.966;7.854;2023-07-29T01:26:30;18.00;99.90
3528;DHT22;1778;47.966;7.854;2023-07-29T01:27:32;17.90;99.90
3528;DHT22;1778;47.966;7.854;2023-07-29T01:28:34;17.90;99.90
3528;DHT22;1778;47.966;7.854;2023-07-29T01:29:35;17.90;99.90
3528;DHT22;1778;47.966;7.854;2023-07-29T01:30:40;17.90;99.90
3528;DHT22;1778;47.966;7.854;2023-07-29T01:31:45;17.90;99.90
3528;DHT22;1778;47.966;7.854;2023-07-29T01:32:56;17.90;99.90
3528;DHT22;1778;47.966;7.854;2023-07-29T01:34:09;17.90;99.90
3528;DHT22;1778;47.966;7.854;2023-07-29T01:36:36;17.90;99.90
3528;DHT22;1778;47.966;7.854;2023-07-29T01:37:41;17.90;99.90
3528;DHT22;1778;47.966;7.854;2023-07-29T01:38:47;17.90;99.90
3528;DHT22;1778;47.966;7.854;2023-07-29T01:39:50;17.90;99.90
3528;DHT22;1778;47.966;7.854;2023-07-29T01:40:52;17.90;99.90
3528;DHT22;1778;47.966;7.854;2023-07-29T01:41:55;17.90;99.90
3528;DHT22;1778;47.966;7.854;2023-07-29T01:42:56;17.90;99.90
3528;DHT22;1778;47.966;7.854;2023-07-29T01:43:58;17.80;99.90
3528;DHT22;1778;47.966;7.854;2023-07-29T01:45:00;17.90;99.90
3528;DHT22;1778;47.966;7.854;2023-07-29T01:46:04;17.90;99.90
3528;DHT22;1778;47.966;7.854;2023-07-29T01:47:06;17.90;99.90
3528;DHT22;1778;47.966;7.854;2023-07-29T01:48:09;17.90;99.90
3528;DHT22;1778;47.966;7.854;2023-07-29T01:49:11;17.90;99.90
3528;DHT22;1778;47.966;7.854;2023-07-29T01:50:13;17.90;99.90
3528;DHT22;1778;47.966;7.854;2023-07-29T01:51:14;17.90;99.90
3528;DHT22;1778;47.966;7.854;2023-07-29T01:52:16;17.90;99.90
3528;DHT22;1778;47.966;7.854;2023-07-29T01:53:18;17.90;99.90
3528;DHT22;1778;47.966;7.854;2023-07-29T01:54:20;17.90;99.90
3528;DHT22;1778;47.966;7.854;2023-07-29T01:55:21;17.90;99.90
3528;DHT22;1778;47.966;7.854;2023-07-29T01:56:23;17.90;99.90
3528;DHT22;1778;47.966;7.854;2023-07-29T01:57:28;17.90;99.90
3528;DHT22;1778;47.966;7.854;2023-07-29T01:58:29;17.90;99.90
3528;DHT22;1778;47.966;7.854;2023-07-29T01:59:32;17.90;99.90
3528;DHT22;1778;47.966;7.854;2023-07-29T02:00:33;17.90;99.90
3528;DHT22;1778;47.966;7.854;2023-07-29T02:01:35;18.00;99.90
3528;DHT22;1778;47.966;7.854;2023-07-29T02:02:37;18.00;99.90
3528;DHT22;1778;47.966;7.854;2023-07-29T02:03:38;18.00;99.90
3528;DHT22;1778;47.966;7.854;2023-07-29T02:04:40;18.00;99.90
3528;DHT22;1778;47.966;7.854;2023-07-29T02:05:42;18.00;99.90
3528;DHT22;1778;47.966;7.854;2023-07-29T02:06:45;18.00;99.90
3528;DHT22;1778;47.966;7.854;2023-07-29T02:07:47;18.00;99.90
3528;DHT22;1778;47.966;7.854;2023-07-29T02:08:48;18.00;99.90
3528;DHT22;1778;47.966;7.854;2023-07-29T02:09:50;18.00;99.90
3528;DHT22;1778;47.966;7.854;2023-07-29T02:10:52;18.10;99.90
3528;DHT22;1778;47.966;7.854;2023-07-29T02:11:53;18.10;99.90
3528;DHT22;1778;47.966;7.854;2023-07-29T02:12:55;18.00;99.90
3528;DHT22;1778;47.966;7.854;2023-07-29T02:13:57;18.10;99.90
3528;DHT22;1778;47.966;7.854;2023-07-29T02:14:59;18.10;99.90
3528;DHT22;1778;47.966;7.854;2023-07-29T02:16:00;18.00;99.90
3528;DHT22;1778;47.966;7.854;2023-07-29T02:17:02;18.10;99.90
3528;DHT22;1778;47.966;7.854;2023-07-29T02:18:04;18.10;99.90
3528;DHT22;1778;47.966;7.854;2023-07-29T02:19:08;18.10;99.90
3528;DHT22;1778;47.966;7.854;2023-07-29T02:20:10;18.10;99.90
3528;DHT22;1778;47.966;7.854;2023-07-29T02:21:12;18.10;99.90
3528;DHT22;1778;47.966;7.854;2023-07-29T02:22:17;18.10;99.90
3528;DHT22;1778;47.966;7.854;2023-07-29T02:23:18;18.10;99.90
3528;DHT22;1778;47.966;7.854;2023-07-29T02:24:20;18.10;99.90
3528;DHT22;1778;47.966;7.854;2023-07-29T02:25:22;18.10;99.90
3528;DHT22;1778;47.966;7.854;2023-07-29T02:26:24;18.10;99.90
3528;DHT22;1778;47.966;7.854;2023-07-29T02:27:25;18.10;99.90
3528;DHT22;1778;47.966;7.854;2023-07-29T02:28:28;18.10;99.90
3528;DHT22;1778;47.966;7.854;2023-07-29T02:29:30;18.20;99.90
3528;DHT22;1778;47.966;7.854;2023-07-29T02:30:32;18.20;99.90
3528;DHT22;1778;47.966;7.854;2023-07-29T02:31:33;18.20;99.90
3528;DHT22;1778;47.966;7.854;2023-07-29T02:32:36;18.20;99.90
3528;DHT22;1778;47.966;7.854;2023-07-29T02:33:37;18.30;99.90
3528;DHT22;1778;47.966;7.854;2023-07-29T02:34:39;18.30;99.90
3528;DHT22;1778;47.966;7.854;2023-07-29T02:35:41;18.30;99.90
3528;DHT22;1778;47.966;7.854;2023-07-29T02:36:43;18.30;99.90
3528;DHT22;1778;47.966;7.854;2023-07-29T02:37:44;18.30;99.90
3528;DHT22;1778;47.966;7.854;2023-07-29T02:38:46;18.40;99.90
3528;DHT22;1778;47.966;7.854;2023-07-29T02:39:48;18.40;99.90
3528;DHT22;1778;47.966;7.854;2023-07-29T02:40:49;18.40;99.90
3528;DHT22;1778;47.966;7.854;2023-07-29T02:41:51;18.40;99.90
3528;DHT22;1778;47.966;7.854;2023-07-29T02:42:53;18.40;99.90
3528;DHT22;1778;47.966;7.854;2023-07-29T02:43:55;18.40;99.90
3528;DHT22;1778;47.966;7.854;2023-07-29T02:44:57;18.40;99.90
3528;DHT22;1778;47.966;7.854;2023-07-29T02:45:58;18.40;99.90
3528;DHT22;1778;47.966;7.854;2023-07-29T02:47:00;18.40;99.90
3528;DHT22;1778;47.966;7.854;2023-07-29T02:48:01;18.40;99.90
3528;DHT22;1778;47.966;7.854;2023-07-29T02:49:03;18.40;99.90
3528;DHT22;1778;47.966;7.854;2023-07-29T02:50:05;18.40;99.90
3528;DHT22;1778;47.966;7.854;2023-07-29T02:51:07;18.30;99.90
3528;DHT22;1778;47.966;7.854;2023-07-29T02:52:08;18.40;99.90
3528;DHT22;1778;47.966;7.854;2023-07-29T02:53:10;18.40;99.90
3528;DHT22;1778;47.966;7.854;2023-07-29T02:54:12;18.40;99.90
3528;DHT22;1778;47.966;7.854;2023-07-29T02:55:13;18.40;99.90
3528;DHT22;1778;47.966;7.854;2023-07-29T02:56:15;18.40;99.90
3528;DHT22;1778;47.966;7.854;2023-07-29T02:57:16;18.40;99.90
3528;DHT22;1778;47.966;7.854;2023-07-29T02:58:19;18.50;99.90
3528;DHT22;1778;47.966;7.854;2023-07-29T02:59:20;18.50;99.90
3528;DHT22;1778;47.966;7.854;2023-07-29T03:00:22;18.50;99.90
3528;DHT22;1778;47.966;7.854;2023-07-29T03:01:24;18.50;99.90
3528;DHT22;1778;47.966;7.854;2023-07-29T03:02:28;18.50;99.90
3528;DHT22;1778;47.966;7.854;2023-07-29T03:03:31;18.50;99.90
3528;DHT22;1778;47.966;7.854;2023-07-29T03:04:33;18.50;99.90
3528;DHT22;1778;47.966;7.854;2023-07-29T03:05:35;18.40;99.90
3528;DHT22;1778;47.966;7.854;2023-07-29T03:06:36;18.40;99.90
3528;DHT22;1778;47.966;7.854;2023-07-29T03:07:39;18.40;99.90
3528;DHT22;1778;47.966;7.854;2023-07-29T03:08:40;18.40;99.90
3528;DHT22;1778;47.966;7.854;2023-07-29T03:09:42;18.40;99.90
3528;DHT22;1778;47.966;7.854;2023-07-29T03:10:43;18.40;99.90
3528;DHT22;1778;47.966;7.854;2023-07-29T03:11:45;18.40;99.90
3528;DHT22;1778;47.966;7.854;2023-07-29T03:12:47;18.40;99.90
3528;DHT22;1778;47.966;7.854;2023-07-29T03:13:48;18.50;99.90
3528;DHT22;1778;47.966;7.854;2023-07-29T03:14:50;18.40;99.90
3528;DHT22;1778;47.966;7.854;2023-07-29T03:15:51;18.40;99.90
3528;DHT22;1778;47.966;7.854;2023-07-29T03:16:53;18.50;99.90
3528;DHT22;1778;47.966;7.854;2023-07-29T03:17:55;18.40;99.90
3528;DHT22;1778;47.966;7.854;2023-07-29T03:18:56;18.40;99.90
3528;DHT22;1778;47.966;7.854;2023-07-29T03:19:59;18.40;99.90
3528;DHT22;1778;47.966;7.854;2023-07-29T03:21:01;18.50;99.90
3528;DHT22;1778;47.966;7.854;2023-07-29T03:22:02;18.50;99.90
3528;DHT22;1778;47.966;7.854;2023-07-29T03:23:04;18.50;99.90
3528;DHT22;1778;47.966;7.854;2023-07-29T03:24:06;18.50;99.90
3528;DHT22;1778;47.966;7.854;2023-07-29T03:25:08;18.40;99.90
3528;DHT22;1778;47.966;7.854;2023-07-29T03:26:10;18.50;99.90
3528;DHT22;1778;47.966;7.854;2023-07-29T03:27:12;18.50;99.90
3528;DHT22;1778;47.966;7.854;2023-07-29T03:28:14;18.50;99.90
3528;DHT22;1778;47.966;7.854;2023-07-29T03:29:16;18.50;99.90
3528;DHT22;1778;47.966;7.854;2023-07-29T03:30:21;18.50;99.90
3528;DHT22;1778;47.966;7.854;2023-07-29T03:31:23;18.50;99.90
3528;DHT22;1778;47.966;7.854;2023-07-29T03:32:25;18.60;99.90
3528;DHT22;1778;47.966;7.854;2023-07-29T03:33:27;18.50;99.90
3528;DHT22;1778;47.966;7.854;2023-07-29T03:34:28;18.50;99.90
3528;DHT22;1778;47.966;7.854;2023-07-29T03:35:30;18.60;99.90
3528;DHT22;1778;47.966;7.854;2023-07-29T03:36:31;18.60;99.90
3528;DHT22;1778;47.966;7.854;2023-07-29T03:37:33;18.50;99.90
3528;DHT22;1778;47.966;7.854;2023-07-29T03:38:35;18.50;99.90
3528;DHT22;1778;47.966;7.854;2023-07-29T03:39:41;18.50;99.90
3528;DHT22;1778;47.966;7.854;2023-07-29T03:40:43;18.50;99.90
3528;DHT22;1778;47.966;7.854;2023-07-29T03:41:44;18.50;99.90
3528;DHT22;1778;47.966;7.854;2023-07-29T03:42:46;18.40;99.90
3528;DHT22;1778;47.966;7.854;2023-07-29T03:43:48;18.40;99.90
3528;DHT22;1778;47.966;7.854;2023-07-29T03:44:50;18.40;99.90
3528;DHT22;1778;47.966;7.854;2023-07-29T03:45:52;18.40;99.90
3528;DHT22;1778;47.966;7.854;2023-07-29T03:46:53;18.40;99.90
3528;DHT22;1778;47.966;7.854;2023-07-29T03:47:55;18.40;99.90
3528;DHT22;1778;47.966;7.854;2023-07-29T03:48:57;18.40;99.90
3528;DHT22;1778;47.966;7.854;2023-07-29T03:49:59;18.40;99.90
3528;DHT22;1778;47.966;7.854;2023-07-29T03:51:00;18.50;99.90
3528;DHT22;1778;47.966;7.854;2023-07-29T03:52:02;18.50;99.90
3528;DHT22;1778;47.966;7.854;2023-07-29T03:53:04;18.50;99.90
3528;DHT22;1778;47.966;7.854;2023-07-29T03:54:06;18.40;99.90
3528;DHT22;1778;47.966;7.854;2023-07-29T03:55:08;18.30;99.90
3528;DHT22;1778;47.966;7.854;2023-07-29T03:56:09;18.30;99.90
3528;DHT22;1778;47.966;7.854;2023-07-29T03:57:12;18.30;99.90
3528;DHT22;1778;47.966;7.854;2023-07-29T03:58:13;18.30;99.90
3528;DHT22;1778;47.966;7.854;2023-07-29T03:59:15;18.30;99.90
3528;DHT22;1778;47.966;7.854;2023-07-29T04:00:16;18.30;99.90
3528;DHT22;1778;47.966;7.854;2023-07-29T04:01:22;18.30;99.90
3528;DHT22;1778;47.966;7.854;2023-07-29T04:02:24;18.30;99.90
3528;DHT22;1778;47.966;7.854;2023-07-29T04:03:25;18.30;99.90
3528;DHT22;1778;47.966;7.854;2023-07-29T04:04:28;18.30;99.90
3528;DHT22;1778;47.966;7.854;2023-07-29T04:05:30;18.30;99.90
3528;DHT22;1778;47.966;7.854;2023-07-29T04:06:32;18.30;99.90
3528;DHT22;1778;47.966;7.854;2023-07-29T04:07:35;18.30;99.90
3528;DHT22;1778;47.966;7.854;2023-07-29T04:08:36;18.30;99.90
3528;DHT22;1778;47.966;7.854;2023-07-29T04:09:39;18.30;99.90
3528;DHT22;1778;47.966;7.854;2023-07-29T04:10:40;18.30;99.90
3528;DHT22;1778;47.966;7.854;2023-07-29T04:11:42;18.30;99.90
3528;DHT22;1778;47.966;7.854;2023-07-29T04:12:44;18.30;99.90
3528;DHT22;1778;47.966;7.854;2023-07-29T04:13:45;18.30;99.90
3528;DHT22;1778;47.966;7.854;2023-07-29T04:14:47;18.30;99.90
3528;DHT22;1778;47.966;7.854;2023-07-29T04:15:49;18.30;99.90
3528;DHT22;1778;47.966;7.854;2023-07-29T04:16:50;18.40;99.90
3528;DHT22;1778;47.966;7.854;2023-07-29T04:17:52;18.40;99.90
3528;DHT22;1778;47.966;7.854;2023-07-29T04:18:53;18.40;99.90
3528;DHT22;1778;47.966;7.854;2023-07-29T04:19:55;18.40;99.90
3528;DHT22;1778;47.966;7.854;2023-07-29T04:21:01;18.30;99.90
3528;DHT22;1778;47.966;7.854;2023-07-29T04:22:03;18.30;99.90
3528;DHT22;1778;47.966;7.854;2023-07-29T04:23:05;18.30;99.90
3528;DHT22;1778;47.966;7.854;2023-07-29T04:24:07;18.30;99.90
3528;DHT22;1778;47.966;7.854;2023-07-29T04:25:08;18.40;99.90
3528;DHT22;1778;47.966;7.854;2023-07-29T04:26:10;18.30;99.90
3528;DHT22;1778;47.966;7.854;2023-07-29T04:27:12;18.40;99.90
3528;DHT22;1778;47.966;7.854;2023-07-29T04:28:13;18.30;99.90
3528;DHT22;1778;47.966;7.854;2023-07-29T04:29:15;18.30;99.90
3528;DHT22;1778;47.966;7.854;2023-07-29T04:30:17;18.40;99.90
3528;DHT22;1778;47.966;7.854;2023-07-29T04:31:18;18.40;99.90
3528;DHT22;1778;47.966;7.854;2023-07-29T04:32:20;18.40;99.90
3528;DHT22;1778;47.966;7.854;2023-07-29T04:33:22;18.40;99.90
3528;DHT22;1778;47.966;7.854;2023-07-29T04:34:24;18.40;99.90
3528;DHT22;1778;47.966;7.854;2023-07-29T04:35:25;18.40;99.90
3528;DHT22;1778;47.966;7.854;2023-07-29T04:36:27;18.50;99.90
3528;DHT22;1778;47.966;7.854;2023-07-29T04:37:29;18.50;99.90
3528;DHT22;1778;47.966;7.854;2023-07-29T04:38:32;18.50;99.90
3528;DHT22;1778;47.966;7.854;2023-07-29T04:39:34;18.50;99.90
3528;DHT22;1778;47.966;7.854;2023-07-29T04:40:36;18.50;99.90
3528;DHT22;1778;47.966;7.854;2023-07-29T04:41:37;18.60;99.90
3528;DHT22;1778;47.966;7.854;2023-07-29T04:42:39;18.60;99.90
3528;DHT22;1778;47.966;7.854;2023-07-29T04:43:43;18.70;99.90
3528;DHT22;1778;47.966;7.854;2023-07-29T04:44:44;18.70;99.90
3528;DHT22;1778;47.966;7.854;2023-07-29T04:45:46;18.70;99.90
3528;DHT22;1778;47.966;7.854;2023-07-29T04:46:48;18.70;99.90
3528;DHT22;1778;47.966;7.854;2023-07-29T04:47:49;18.70;99.90
3528;DHT22;1778;47.966;7.854;2023-07-29T04:48:51;18.80;99.90
3528;DHT22;1778;47.966;7.854;2023-07-29T04:49:52;18.80;99.90
3528;DHT22;1778;47.966;7.854;2023-07-29T04:50:54;18.80;99.90
3528;DHT22;1778;47.966;7.854;2023-07-29T04:51:55;18.90;99.90
3528;DHT22;1778;47.966;7.854;2023-07-29T04:52:57;18.90;99.90
3528;DHT22;1778;47.966;7.854;2023-07-29T04:53:59;19.00;99.90
3528;DHT22;1778;47.966;7.854;2023-07-29T04:55:00;19.00;99.90
3528;DHT22;1778;47.966;7.854;2023-07-29T04:56:02;19.00;99.90
3528;DHT22;1778;47.966;7.854;2023-07-29T04:57:04;19.00;99.90
3528;DHT22;1778;47.966;7.854;2023-07-29T04:58:06;19.00;99.90
3528;DHT22;1778;47.966;7.854;2023-07-29T04:59:07;19.00;99.90
3528;DHT22;1778;47.966;7.854;2023-07-29T05:00:10;19.10;99.90
3528;DHT22;1778;47.966;7.854;2023-07-29T05:01:12;19.10;99.90
3528;DHT22;1778;47.966;7.854;2023-07-29T05:02:14;19.10;99.90
3528;DHT22;1778;47.966;7.854;2023-07-29T05:03:16;19.10;99.90
3528;DHT22;1778;47.966;7.854;2023-07-29T05:04:18;19.10;99.90
3528;DHT22;1778;47.966;7.854;2023-07-29T05:05:19;19.10;99.90
3528;DHT22;1778;47.966;7.854;2023-07-29T05:06:21;19.10;99.90
3528;DHT22;1778;47.966;7.854;2023-07-29T05:07:23;19.10;99.90
3528;DHT22;1778;47.966;7.854;2023-07-29T05:08:27;19.10;99.90
3528;DHT22;1778;47.966;7.854;2023-07-29T05:09:29;19.20;99.90
3528;DHT22;1778;47.966;7.854;2023-07-29T05:10:30;19.20;99.90
3528;DHT22;1778;47.966;7.854;2023-07-29T05:11:32;19.20;99.90
3528;DHT22;1778;47.966;7.854;2023-07-29T05:12:33;19.20;99.90
3528;DHT22;1778;47.966;7.854;2023-07-29T05:13:35;19.20;99.90
3528;DHT22;1778;47.966;7.854;2023-07-29T05:14:37;19.20;99.90
3528;DHT22;1778;47.966;7.854;2023-07-29T05:15:38;19.20;99.90
3528;DHT22;1778;47.966;7.854;2023-07-29T05:16:40;19.20;99.90
3528;DHT22;1778;47.966;7.854;2023-07-29T05:17:42;19.20;99.90
3528;DHT22;1778;47.966;7.854;2023-07-29T05:18:43;19.20;99.90
3528;DHT22;1778;47.966;7.854;2023-07-29T05:19:45;19.30;99.90
3528;DHT22;1778;47.966;7.854;2023-07-29T05:20:47;19.30;99.90
3528;DHT22;1778;47.966;7.854;2023-07-29T05:21:48;19.40;99.90
3528;DHT22;1778;47.966;7.854;2023-07-29T05:22:50;19.40;99.90
3528;DHT22;1778;47.966;7.854;2023-07-29T05:23:51;19.50;99.90
3528;DHT22;1778;47.966;7.854;2023-07-29T05:24:53;19.50;99.90
3528;DHT22;1778;47.966;7.854;2023-07-29T05:25:55;19.60;99.90
3528;DHT22;1778;47.966;7.854;2023-07-29T05:26:56;19.60;99.90
3528;DHT22;1778;47.966;7.854;2023-07-29T05:27:58;19.60;99.90
3528;DHT22;1778;47.966;7.854;2023-07-29T05:28:59;19.60;99.90
3528;DHT22;1778;47.966;7.854;2023-07-29T05:30:01;19.60;99.90
3528;DHT22;1778;47.966;7.854;2023-07-29T05:31:04;19.60;99.90
3528;DHT22;1778;47.966;7.854;2023-07-29T05:32:05;19.60;99.90
3528;DHT22;1778;47.966;7.854;2023-07-29T05:33:07;19.60;99.90
3528;DHT22;1778;47.966;7.854;2023-07-29T05:34:10;19.70;99.90
3528;DHT22;1778;47.966;7.854;2023-07-29T05:35:11;19.70;99.90
3528;DHT22;1778;47.966;7.854;2023-07-29T05:36:13;19.70;99.90
3528;DHT22;1778;47.966;7.854;2023-07-29T05:37:14;19.80;99.90
3528;DHT22;1778;47.966;7.854;2023-07-29T05:38:16;19.80;99.90
3528;DHT22;1778;47.966;7.854;2023-07-29T05:39:18;19.90;99.90
3528;DHT22;1778;47.966;7.854;2023-07-29T05:40:19;19.90;99.90
3528;DHT22;1778;47.966;7.854;2023-07-29T05:41:22;20.00;99.90
3528;DHT22;1778;47.966;7.854;2023-07-29T05:42:23;20.00;99.90
3528;DHT22;1778;47.966;7.854;2023-07-29T05:43:26;20.10;99.90
3528;DHT22;1778;47.966;7.854;2023-07-29T05:44:28;20.10;99.90
3528;DHT22;1778;47.966;7.854;2023-07-29T05:45:31;20.10;99.90
3528;DHT22;1778;47.966;7.854;2023-07-29T05:46:34;20.10;99.90
3528;DHT22;1778;47.966;7.854;2023-07-29T05:47:36;20.10;99.90
3528;DHT22;1778;47.966;7.854;2023-07-29T05:48:37;20.10;99.90
3528;DHT22;1778;47.966;7.854;2023-07-29T05:49:39;20.10;99.90
3528;DHT22;1778;47.966;7.854;2023-07-29T05:50:41;20.10;99.90
3528;DHT22;1778;47.966;7.854;2023-07-29T05:51:42;20.20;99.90
3528;DHT22;1778;47.966;7.854;2023-07-29T05:52:44;20.20;99.90
3528;DHT22;1778;47.966;7.854;2023-07-29T05:53:46;20.20;99.90
3528;DHT22;1778;47.966;7.854;2023-07-29T05:54:48;20.20;99.90
3528;DHT22;1778;47.966;7.854;2023-07-29T05:55:49;20.30;99.90
3528;DHT22;1778;47.966;7.854;2023-07-29T05:56:51;20.30;99.90
3528;DHT22;1778;47.966;7.854;2023-07-29T05:57:52;20.40;99.90
3528;DHT22;1778;47.966;7.854;2023-07-29T05:58:53;20.40;99.90
3528;DHT22;1778;47.966;7.854;2023-07-29T05:59:55;20.40;99.90
3528;DHT22;1778;47.966;7.854;2023-07-29T06:00:58;20.40;99.90
3528;DHT22;1778;47.966;7.854;2023-07-29T06:01:59;20.50;99.90
3528;DHT22;1778;47.966;7.854;2023-07-29T06:03:01;20.50;99.90
3528;DHT22;1778;47.966;7.854;2023-07-29T06:04:03;20.60;99.90
3528;DHT22;1778;47.966;7.854;2023-07-29T06:05:04;20.60;99.90
3528;DHT22;1778;47.966;7.854;2023-07-29T06:06:07;20.70;99.90
3528;DHT22;1778;47.966;7.854;2023-07-29T06:07:08;20.70;99.90
3528;DHT22;1778;47.966;7.854;2023-07-29T06:08:10;20.80;99.90
3528;DHT22;1778;47.966;7.854;2023-07-29T06:09:12;20.80;99.90
3528;DHT22;1778;47.966;7.854;2023-07-29T06:10:15;20.90;99.90
3528;DHT22;1778;47.966;7.854;2023-07-29T06:11:21;20.90;99.90
3528;DHT22;1778;47.966;7.854;2023-07-29T06:12:23;20.90;99.90
3528;DHT22;1778;47.966;7.854;2023-07-29T06:13:24;20.90;99.90
3528;DHT22;1778;47.966;7.854;2023-07-29T06:14:26;20.90;99.90
3528;DHT22;1778;47.966;7.854;2023-07-29T06:15:28;20.90;99.90
3528;DHT22;1778;47.966;7.854;2023-07-29T06:16:29;20.90;99.90
3528;DHT22;1778;47.966;7.854;2023-07-29T06:17:31;21.00;99.90
3528;DHT22;1778;47.966;7.854;2023-07-29T06:18:33;21.00;99.90
3528;DHT22;1778;47.966;7.854;2023-07-29T06:19:34;21.10;99.90
3528;DHT22;1778;47.966;7.854;2023-07-29T06:20:36;21.20;99.90
3528;DHT22;1778;47.966;7.854;2023-07-29T06:21:38;21.30;99.90
3528;DHT22;1778;47.966;7.854;2023-07-29T06:22:40;21.40;99.90
3528;DHT22;1778;47.966;7.854;2023-07-29T06:23:43;21.40;99.90
3528;DHT22;1778;47.966;7.854;2023-07-29T06:24:44;21.60;99.90
3528;DHT22;1778;47.966;7.854;2023-07-29T06:25:46;21.60;99.90
3528;DHT22;1778;47.966;7.854;2023-07-29T06:26:47;21.70;99.90
3528;DHT22;1778;47.966;7.854;2023-07-29T06:27:49;21.70;99.90
3528;DHT22;1778;47.966;7.854;2023-07-29T06:28:51;21.80;99.90
3528;DHT22;1778;47.966;7.854;2023-07-29T06:29:52;21.70;99.90
3528;DHT22;1778;47.966;7.854;2023-07-29T06:30:54;21.80;99.90
3528;DHT22;1778;47.966;7.854;2023-07-29T06:31:56;21.90;99.90
3528;DHT22;1778;47.966;7.854;2023-07-29T06:32:57;21.90;99.90
3528;DHT22;1778;47.966;7.854;2023-07-29T06:33:59;21.90;99.90
3528;DHT22;1778;47.966;7.854;2023-07-29T06:35:01;21.90;99.90
3528;DHT22;1778;47.966;7.854;2023-07-29T06:36:03;21.80;99.90
3528;DHT22;1778;47.966;7.854;2023-07-29T06:37:04;21.70;99.90
3528;DHT22;1778;47.966;7.854;2023-07-29T06:38:06;21.60;99.90
3528;DHT22;1778;47.966;7.854;2023-07-29T06:39:08;21.60;99.90
3528;DHT22;1778;47.966;7.854;2023-07-29T06:40:10;21.50;99.90
3528;DHT22;1778;47.966;7.854;2023-07-29T06:41:11;21.50;99.90
3528;DHT22;1778;47.966;7.854;2023-07-29T06:42:17;21.40;99.90
3528;DHT22;1778;47.966;7.854;2023-07-29T06:43:18;21.30;99.90
3528;DHT22;1778;47.966;7.854;2023-07-29T06:44:20;21.20;99.90
3528;DHT22;1778;47.966;7.854;2023-07-29T06:45:21;21.20;99.90
3528;DHT22;1778;47.966;7.854;2023-07-29T06:46:23;21.20;99.90
3528;DHT22;1778;47.966;7.854;2023-07-29T06:47:25;21.20;99.90
3528;DHT22;1778;47.966;7.854;2023-07-29T06:48:26;21.00;99.90
3528;DHT22;1778;47.966;7.854;2023-07-29T06:49:28;21.00;99.90
3528;DHT22;1778;47.966;7.854;2023-07-29T06:50:30;20.90;99.90
3528;DHT22;1778;47.966;7.854;2023-07-29T06:51:31;20.80;99.90